createdAt,value
2018-06-09T00:00:59.615Z,99.90
2018-06-09T00:03:35.056Z,99.90
2018-06-09T00:06:10.109Z,99.90
2018-06-09T00:08:45.200Z,99.90
2018-06-09T00:11:20.106Z,99.90
2018-06-09T00:13:55.135Z,99.90
2018-06-09T00:19:04.488Z,99.90
2018-06-09T00:21:39.332Z,99.90
2018-06-09T00:24:14.094Z,99.90
2018-06-09T00:26:49.386Z,99.90
2018-06-09T00:29:24.214Z,99.90
2018-06-09T00:31:59.264Z,99.90
2018-06-09T00:34:34.228Z,99.90
2018-06-09T00:37:09.231Z,99.90
2018-06-09T00:39:44.100Z,99.90
2018-06-09T00:42:19.045Z,99.90
2018-06-09T00:44:54.176Z,99.90
2018-06-09T00:47:28.957Z,99.90
2018-06-09T00:50:04.076Z,99.90
2018-06-09T00:52:39.111Z,99.90
2018-06-09T00:55:13.994Z,99.90
2018-06-09T00:57:48.831Z,99.90
2018-06-09T01:00:23.750Z,99.90
2018-06-09T01:02:58.612Z,99.90
2018-06-09T01:05:33.382Z,99.90
2018-06-09T01:08:08.258Z,99.90
2018-06-09T01:10:42.974Z,99.90
2018-06-09T01:13:18.215Z,99.90
2018-06-09T01:15:53.146Z,99.90
2018-06-09T01:18:28.179Z,99.90
2018-06-09T01:21:03.109Z,99.90
2018-06-09T01:23:38.130Z,99.90
2018-06-09T01:26:13.187Z,99.90
2018-06-09T01:28:48.342Z,99.90
2018-06-09T01:31:23.417Z,99.90
2018-06-09T01:33:58.178Z,99.90
2018-06-09T01:36:32.959Z,99.90
2018-06-09T01:39:09.178Z,99.90
2018-06-09T01:41:44.410Z,99.90
2018-06-09T01:46:54.090Z,99.90
2018-06-09T01:49:28.990Z,99.90
2018-06-09T01:52:03.836Z,99.90
2018-06-09T01:54:38.717Z,99.90
2018-06-09T01:57:13.659Z,99.90
2018-06-09T01:59:48.401Z,99.90
2018-06-09T02:02:30.262Z,99.90
2018-06-09T02:05:05.209Z,99.90
2018-06-09T02:07:40.097Z,99.90
2018-06-09T02:10:15.062Z,99.90
2018-06-09T02:12:49.907Z,99.90
2018-06-09T02:15:24.948Z,99.90
2018-06-09T02:17:59.991Z,99.90
2018-06-09T02:20:34.950Z,99.90
2018-06-09T02:23:10.134Z,99.90
2018-06-09T02:25:45.013Z,99.90
2018-06-09T02:28:19.793Z,99.90
2018-06-09T02:30:54.641Z,99.90
2018-06-09T02:33:29.822Z,99.90
2018-06-09T02:36:05.139Z,99.90
2018-06-09T02:41:14.575Z,99.90
2018-06-09T02:43:49.527Z,99.90
2018-06-09T02:48:58.893Z,99.90
2018-06-09T02:51:34.226Z,99.90
2018-06-09T02:54:08.849Z,99.90
2018-06-09T02:56:43.863Z,99.90
2018-06-09T02:59:18.832Z,99.90
2018-06-09T03:01:53.763Z,99.90
2018-06-09T03:04:28.763Z,99.90
2018-06-09T03:07:03.811Z,99.90
2018-06-09T03:09:38.670Z,99.90
2018-06-09T03:12:13.859Z,99.90
2018-06-09T03:14:48.637Z,99.90
2018-06-09T03:17:23.446Z,99.90
2018-06-09T03:19:58.694Z,99.90
2018-06-09T03:22:33.806Z,99.90
2018-06-09T03:25:08.925Z,99.90
2018-06-09T03:27:43.995Z,99.90
2018-06-09T03:30:18.899Z,99.90
2018-06-09T03:32:53.926Z,99.90
2018-06-09T03:35:28.874Z,99.90
2018-06-09T03:38:03.595Z,99.90
2018-06-09T03:40:38.509Z,99.90
2018-06-09T03:43:13.298Z,99.90
2018-06-09T03:45:48.340Z,99.90
2018-06-09T03:48:23.122Z,99.90
2018-06-09T03:50:58.032Z,99.90
2018-06-09T03:53:32.834Z,99.90
2018-06-09T03:56:07.817Z,99.90
2018-06-09T03:58:43.057Z,99.90
2018-06-09T04:01:19.045Z,99.90
2018-06-09T04:03:54.179Z,99.90
2018-06-09T04:06:29.703Z,99.90
2018-06-09T04:09:06.004Z,99.90
2018-06-09T04:11:41.091Z,99.90
2018-06-09T04:14:15.928Z,99.90
2018-06-09T04:16:51.165Z,99.90
2018-06-09T04:19:25.899Z,99.90
2018-06-09T04:22:01.073Z,99.90
2018-06-09T04:24:35.971Z,99.90
2018-06-09T04:27:10.828Z,99.90
2018-06-09T04:29:45.802Z,99.90
2018-06-09T04:32:20.840Z,99.90
2018-06-09T04:34:55.878Z,99.90
2018-06-09T04:37:30.836Z,99.90
2018-06-09T04:40:05.933Z,99.90
2018-06-09T04:42:41.253Z,99.90
2018-06-09T04:45:17.432Z,99.90
2018-06-09T04:47:52.451Z,99.90
2018-06-09T04:50:27.247Z,99.90
2018-06-09T04:53:02.186Z,99.90
2018-06-09T04:55:37.044Z,99.90
2018-06-09T04:58:11.937Z,99.90
2018-06-09T05:00:47.083Z,99.90
2018-06-09T05:03:22.298Z,99.90
2018-06-09T05:05:57.328Z,99.90
2018-06-09T05:08:32.650Z,99.90
2018-06-09T05:11:07.667Z,99.90
2018-06-09T05:13:42.819Z,99.90
2018-06-09T05:16:17.482Z,99.90
2018-06-09T05:18:52.910Z,99.90
2018-06-09T05:21:28.162Z,99.90
2018-06-09T05:24:02.973Z,99.90
2018-06-09T05:26:38.029Z,99.90
2018-06-09T05:29:13.159Z,99.90
2018-06-09T05:31:48.278Z,99.90
2018-06-09T05:34:23.077Z,99.90
2018-06-09T05:36:57.963Z,99.90
2018-06-09T05:39:32.950Z,99.90
2018-06-09T05:42:08.368Z,99.90
2018-06-09T05:44:43.624Z,99.90
2018-06-09T05:47:18.694Z,99.90
2018-06-09T05:49:53.897Z,99.90
2018-06-09T05:52:28.961Z,99.90
2018-06-09T05:55:04.096Z,99.90
2018-06-09T05:57:38.923Z,99.90
2018-06-09T06:00:13.854Z,99.90
2018-06-09T06:02:48.755Z,99.90
2018-06-09T06:05:23.825Z,99.90
2018-06-09T06:10:34.119Z,99.90
2018-06-09T06:13:09.368Z,99.90
2018-06-09T06:15:44.480Z,99.90
2018-06-09T06:18:19.393Z,99.90
2018-06-09T06:20:54.824Z,99.90
2018-06-09T06:23:29.906Z,99.90
2018-06-09T06:26:05.075Z,99.90
2018-06-09T06:28:39.842Z,99.90
2018-06-09T06:31:15.172Z,99.90
2018-06-09T06:33:50.221Z,99.90
2018-06-09T06:36:25.479Z,99.90
2018-06-09T06:39:00.606Z,99.90
2018-06-09T06:41:35.809Z,99.90
2018-06-09T06:44:10.712Z,99.90
2018-06-09T06:46:45.874Z,99.90
2018-06-09T06:49:21.038Z,99.90
2018-06-09T06:51:56.048Z,99.90
2018-06-09T06:54:32.209Z,99.90
2018-06-09T06:57:07.305Z,99.90
2018-06-09T06:59:42.157Z,99.90
2018-06-09T07:02:17.691Z,99.90
2018-06-09T07:04:52.824Z,99.90
2018-06-09T07:07:27.689Z,99.90
2018-06-09T07:10:02.835Z,99.90
2018-06-09T07:12:37.759Z,99.90
2018-06-09T07:15:12.877Z,99.90
2018-06-09T07:17:48.181Z,99.90
2018-06-09T07:22:57.811Z,99.90
2018-06-09T07:25:32.864Z,99.90
2018-06-09T07:28:07.921Z,99.90
2018-06-09T07:30:42.972Z,99.90
2018-06-09T07:33:18.096Z,99.90
2018-06-09T07:35:53.264Z,99.90
2018-06-09T07:38:28.747Z,99.90
2018-06-09T07:43:38.681Z,99.90
2018-06-09T07:46:14.601Z,99.90
2018-06-09T07:48:49.415Z,99.90
2018-06-09T07:51:24.426Z,99.90
2018-06-09T07:54:02.588Z,99.90
2018-06-09T07:56:37.779Z,99.90
2018-06-09T07:59:12.880Z,99.90
2018-06-09T08:01:47.882Z,99.90
2018-06-09T08:04:22.984Z,99.90
2018-06-09T08:06:57.979Z,99.90
2018-06-09T08:09:32.952Z,99.90
2018-06-09T08:12:07.884Z,99.90
2018-06-09T08:14:42.934Z,99.90
2018-06-09T08:17:18.150Z,99.90
2018-06-09T08:19:53.078Z,99.90
2018-06-09T08:22:28.114Z,99.90
2018-06-09T08:25:03.763Z,99.90
2018-06-09T08:27:38.596Z,99.90
2018-06-09T08:30:13.928Z,99.90
2018-06-09T08:32:48.953Z,99.90
2018-06-09T08:35:23.797Z,99.90
2018-06-09T08:37:58.970Z,99.90
2018-06-09T08:40:33.900Z,99.90
2018-06-09T08:43:08.809Z,99.90
2018-06-09T08:45:43.905Z,99.90
2018-06-09T08:48:18.807Z,99.90
2018-06-09T08:50:53.602Z,99.90
2018-06-09T08:53:28.424Z,99.90
2018-06-09T08:56:03.486Z,99.90
2018-06-09T08:58:38.712Z,99.90
2018-06-09T09:01:13.638Z,99.90
2018-06-09T09:03:48.807Z,99.90
2018-06-09T09:06:23.939Z,99.90
2018-06-09T09:08:59.276Z,99.90
2018-06-09T09:11:34.378Z,99.90
2018-06-09T09:14:09.440Z,99.90
2018-06-09T09:16:44.630Z,99.90
2018-06-09T09:19:19.469Z,99.90
2018-06-09T09:21:55.068Z,99.90
2018-06-09T09:24:29.883Z,99.90
2018-06-09T09:27:04.835Z,99.90
2018-06-09T09:29:40.139Z,99.90
2018-06-09T09:32:15.089Z,99.90
2018-06-09T09:34:50.304Z,99.90
2018-06-09T09:37:25.110Z,99.90
2018-06-09T09:40:00.301Z,99.90
2018-06-09T09:42:35.089Z,99.90
2018-06-09T09:45:10.477Z,99.90
2018-06-09T09:47:45.147Z,99.90
2018-06-09T09:50:20.208Z,99.90
2018-06-09T09:52:55.368Z,99.90
2018-06-09T09:55:30.552Z,99.90
2018-06-09T09:58:05.699Z,99.90
2018-06-09T10:00:40.844Z,99.90
2018-06-09T10:05:50.459Z,99.90
2018-06-09T10:08:25.290Z,99.90
2018-06-09T10:11:00.243Z,99.90
2018-06-09T10:13:35.447Z,99.90
2018-06-09T10:16:10.598Z,99.90
2018-06-09T10:18:45.328Z,99.90
2018-06-09T10:21:20.352Z,98.40
2018-06-09T10:23:55.505Z,99.20
2018-06-09T10:26:30.321Z,99.20
2018-06-09T10:29:07.197Z,99.10
2018-06-09T10:31:42.609Z,99.00
2018-06-09T10:34:24.082Z,99.20
2018-06-09T10:36:59.261Z,99.30
2018-06-09T10:39:34.595Z,99.50
2018-06-09T10:42:09.484Z,99.70
2018-06-09T10:44:44.459Z,99.10
2018-06-09T10:47:19.241Z,98.20
2018-06-09T10:49:54.275Z,98.40
2018-06-09T10:52:29.375Z,99.20
2018-06-09T10:55:04.498Z,99.40
2018-06-09T10:57:39.374Z,98.90
2018-06-09T11:00:14.315Z,99.00
2018-06-09T11:02:49.908Z,98.70
2018-06-09T11:05:24.858Z,98.80
2018-06-09T11:07:59.732Z,98.80
2018-06-09T11:10:34.837Z,97.90
2018-06-09T11:13:09.636Z,97.30
2018-06-09T11:15:44.576Z,97.60
2018-06-09T11:18:19.742Z,97.00
2018-06-09T11:20:55.197Z,96.90
2018-06-09T11:23:30.538Z,96.70
2018-06-09T11:26:05.557Z,96.90
2018-06-09T11:28:40.773Z,97.30
2018-06-09T11:31:15.728Z,97.10
2018-06-09T11:33:50.889Z,95.90
2018-06-09T11:36:25.942Z,96.60
2018-06-09T11:39:00.985Z,96.30
2018-06-09T11:41:36.380Z,96.70
2018-06-09T11:44:11.651Z,96.90
2018-06-09T11:46:46.498Z,96.50
2018-06-09T11:49:21.340Z,95.90
2018-06-09T11:51:56.436Z,95.00
2018-06-09T11:54:31.665Z,95.10
2018-06-09T11:57:06.504Z,95.00
2018-06-09T11:59:41.403Z,95.10
2018-06-09T12:02:16.258Z,95.00
2018-06-09T12:04:51.355Z,94.40
2018-06-09T12:07:26.237Z,94.20
2018-06-09T12:10:01.170Z,93.40
2018-06-09T12:12:36.263Z,93.40
2018-06-09T12:15:11.272Z,93.50
2018-06-09T12:17:46.371Z,93.10
2018-06-09T12:20:21.187Z,92.70
2018-06-09T12:22:56.207Z,93.20
2018-06-09T12:25:31.227Z,92.50
2018-06-09T12:30:40.964Z,93.60
2018-06-09T12:33:15.971Z,92.50
2018-06-09T12:35:50.876Z,92.40
2018-06-09T12:38:26.279Z,92.90
2018-06-09T12:41:01.349Z,93.20
2018-06-09T12:43:36.400Z,92.20
2018-06-09T12:46:11.572Z,92.90
2018-06-09T12:48:46.562Z,92.90
2018-06-09T12:53:56.269Z,92.20
2018-06-09T12:56:31.322Z,91.90
2018-06-09T12:59:06.872Z,91.40
2018-06-09T13:01:41.754Z,91.20
2018-06-09T13:04:16.898Z,90.30
2018-06-09T13:06:51.903Z,90.10
2018-06-09T13:09:26.959Z,90.00
2018-06-09T13:12:02.056Z,89.00
2018-06-09T13:14:36.896Z,90.30
2018-06-09T13:17:11.958Z,90.00
2018-06-09T13:19:47.210Z,90.60
2018-06-09T13:22:21.899Z,88.90
2018-06-09T13:24:59.189Z,89.40
2018-06-09T13:27:34.183Z,89.90
2018-06-09T13:30:09.287Z,89.00
2018-06-09T13:35:19.090Z,87.70
2018-06-09T13:37:54.272Z,89.00
2018-06-09T13:40:29.128Z,89.00
2018-06-09T13:43:04.255Z,89.90
2018-06-09T13:45:39.399Z,88.10
2018-06-09T13:48:14.607Z,87.30
2018-06-09T13:50:49.745Z,87.50
2018-06-09T13:53:24.669Z,87.50
2018-06-09T13:56:00.258Z,87.20
2018-06-09T13:58:35.779Z,87.40
2018-06-09T14:01:10.635Z,87.40
2018-06-09T14:03:45.828Z,87.60
2018-06-09T14:06:20.784Z,88.00
2018-06-09T14:08:55.695Z,88.10
2018-06-09T14:11:31.073Z,88.30
2018-06-09T14:14:06.599Z,89.10
2018-06-09T14:16:42.337Z,89.80
2018-06-09T14:19:17.464Z,90.10
2018-06-09T14:21:52.405Z,90.20
2018-06-09T14:24:27.886Z,90.80
2018-06-09T14:27:02.937Z,90.00
2018-06-09T14:29:38.079Z,90.60
2018-06-09T14:32:13.247Z,90.80
2018-06-09T14:34:48.413Z,91.00
2018-06-09T14:37:23.332Z,90.70
2018-06-09T14:39:58.458Z,90.90
2018-06-09T14:42:33.543Z,90.10
2018-06-09T14:45:08.876Z,89.70
2018-06-09T14:47:44.277Z,90.20
2018-06-09T14:50:19.784Z,91.00
2018-06-09T14:52:55.106Z,90.70
2018-06-09T14:55:30.337Z,90.30
2018-06-09T14:58:05.930Z,90.00
2018-06-09T15:00:41.254Z,90.20
2018-06-09T15:03:16.367Z,90.50
2018-06-09T15:05:51.494Z,90.60
2018-06-09T15:08:26.608Z,90.30
2018-06-09T15:11:01.593Z,88.70
2018-06-09T15:13:36.678Z,88.40
2018-06-09T15:16:11.984Z,88.60
2018-06-09T15:18:47.208Z,87.60
2018-06-09T15:21:23.176Z,86.50
2018-06-09T15:23:58.290Z,87.60
2018-06-09T15:26:33.566Z,85.30
2018-06-09T15:29:09.259Z,84.40
2018-06-09T15:31:44.476Z,84.80
2018-06-09T15:34:19.476Z,85.40
2018-06-09T15:36:54.955Z,85.50
2018-06-09T15:39:29.845Z,85.80
2018-06-09T15:42:05.067Z,85.50
2018-06-09T15:44:40.187Z,84.50
2018-06-09T15:47:14.951Z,85.90
2018-06-09T15:49:50.076Z,86.20
2018-06-09T15:52:24.886Z,87.20
2018-06-09T15:54:59.692Z,84.30
2018-06-09T15:57:34.982Z,85.00
2018-06-09T16:00:10.291Z,84.10
2018-06-09T16:02:45.343Z,82.20
2018-06-09T16:05:20.314Z,82.30
2018-06-09T16:07:56.228Z,82.90
2018-06-09T16:10:31.404Z,83.30
2018-06-09T16:13:07.053Z,81.00
2018-06-09T16:15:42.889Z,81.20
2018-06-09T16:18:18.040Z,80.10
2018-06-09T16:20:58.827Z,79.70
2018-06-09T16:23:34.578Z,80.00
2018-06-09T16:26:10.352Z,80.00
2018-06-09T16:28:45.624Z,81.30
2018-06-09T16:31:21.160Z,80.80
2018-06-09T16:33:57.194Z,80.70
2018-06-09T16:36:32.725Z,78.70
2018-06-09T16:39:08.402Z,78.80
2018-06-09T16:41:43.884Z,79.90
2018-06-09T16:44:19.072Z,79.60
2018-06-09T16:46:54.406Z,80.30
2018-06-09T16:49:29.486Z,80.00
2018-06-09T16:52:04.224Z,81.40
2018-06-09T16:54:39.673Z,82.30
2018-06-09T16:57:15.125Z,82.10
2018-06-09T16:59:50.649Z,81.70
2018-06-09T17:02:25.661Z,82.50
2018-06-09T17:05:00.991Z,81.70
2018-06-09T17:10:10.758Z,81.90
2018-06-09T17:12:45.563Z,83.00
2018-06-09T17:15:20.513Z,83.90
2018-06-09T17:17:55.507Z,84.30
2018-06-09T17:20:30.998Z,84.90
2018-06-09T17:23:06.162Z,82.50
2018-06-09T17:25:40.986Z,83.10
2018-06-09T17:28:16.175Z,83.30
2018-06-09T17:30:51.298Z,84.20
2018-06-09T17:33:26.353Z,84.00
2018-06-09T17:36:01.256Z,85.40
2018-06-09T17:38:36.365Z,85.30
2018-06-09T17:41:11.305Z,85.60
2018-06-09T17:43:46.002Z,86.00
2018-06-09T17:46:21.733Z,86.30
2018-06-09T17:48:56.521Z,86.70
2018-06-09T17:51:31.852Z,86.40
2018-06-09T17:54:06.761Z,86.40
2018-06-09T17:56:41.717Z,86.60
2018-06-09T17:59:16.971Z,86.60
2018-06-09T18:01:51.874Z,86.70
2018-06-09T18:04:26.912Z,87.30
2018-06-09T18:07:01.918Z,86.70
2018-06-09T18:09:37.045Z,87.70
2018-06-09T18:12:12.061Z,87.40
2018-06-09T18:14:46.977Z,87.70
2018-06-09T18:19:56.800Z,88.80
2018-06-09T18:22:31.696Z,88.60
2018-06-09T18:25:07.107Z,88.80
2018-06-09T18:27:42.308Z,89.00
2018-06-09T18:30:17.099Z,89.50
2018-06-09T18:32:52.162Z,90.00
2018-06-09T18:35:26.926Z,90.20
2018-06-09T18:38:02.110Z,90.40
2018-06-09T18:40:37.201Z,90.70
2018-06-09T18:43:12.292Z,90.60
2018-06-09T18:45:47.352Z,90.90
2018-06-09T18:48:22.274Z,91.00
2018-06-09T18:50:57.292Z,91.10
2018-06-09T18:53:32.234Z,91.10
2018-06-09T18:56:07.246Z,91.10
2018-06-09T18:58:41.992Z,91.20
2018-06-09T19:01:17.247Z,91.30
2018-06-09T19:03:52.072Z,91.30
2018-06-09T19:06:27.208Z,91.40
2018-06-09T19:09:02.156Z,91.60
2018-06-09T19:11:37.332Z,91.80
2018-06-09T19:14:12.529Z,92.00
2018-06-09T19:16:47.496Z,92.10
2018-06-09T19:19:22.237Z,91.90
2018-06-09T19:21:57.205Z,91.90
2018-06-09T19:24:32.629Z,91.80
2018-06-09T19:27:07.731Z,91.70
2018-06-09T19:29:42.942Z,91.80
2018-06-09T19:32:18.022Z,91.80
2018-06-09T19:34:53.221Z,91.70
2018-06-09T19:37:28.499Z,91.80
2018-06-09T19:40:03.519Z,91.90
2018-06-09T19:42:38.690Z,92.00
2018-06-09T19:45:13.869Z,92.00
2018-06-09T19:47:49.219Z,91.80
2018-06-09T19:50:24.736Z,92.00
2018-06-09T19:52:59.854Z,92.10
2018-06-09T19:55:35.242Z,92.10
2018-06-09T19:58:10.447Z,92.10
2018-06-09T20:00:45.186Z,92.30
2018-06-09T20:03:20.824Z,92.40
2018-06-09T20:05:56.333Z,92.50
2018-06-09T20:08:31.370Z,92.60
2018-06-09T20:11:06.609Z,92.50
2018-06-09T20:13:41.763Z,92.50
2018-06-09T20:16:16.953Z,92.70
2018-06-09T20:21:28.590Z,92.70
2018-06-09T20:24:04.892Z,92.80
2018-06-09T20:26:40.873Z,92.90
2018-06-09T20:29:16.131Z,93.00
2018-06-09T20:31:51.979Z,93.10
2018-06-09T20:34:27.414Z,93.20
2018-06-09T20:37:02.786Z,93.20
2018-06-09T20:39:38.501Z,93.30
2018-06-09T20:42:15.199Z,93.40
2018-06-09T20:44:50.833Z,93.40
2018-06-09T20:47:27.523Z,93.60
2018-06-09T20:50:03.143Z,93.60
2018-06-09T20:52:40.494Z,93.80
2018-06-09T20:55:15.768Z,93.90
2018-06-09T20:57:51.013Z,94.00
2018-06-09T21:00:27.026Z,94.20
2018-06-09T21:03:02.335Z,94.30
2018-06-09T21:05:37.385Z,94.30
2018-06-09T21:08:12.769Z,94.40
2018-06-09T21:10:48.022Z,94.40
2018-06-09T21:13:25.347Z,94.40
2018-06-09T21:16:00.724Z,94.60
2018-06-09T21:18:36.608Z,94.80
2018-06-09T21:21:13.066Z,95.00
2018-06-09T21:23:48.422Z,95.20
2018-06-09T21:26:23.885Z,95.20
2018-06-09T21:29:08.577Z,95.90
2018-06-09T21:31:45.116Z,95.50
2018-06-09T21:34:33.806Z,95.70
2018-06-09T21:37:12.947Z,95.90
2018-06-09T21:39:53.075Z,96.00
2018-06-09T21:42:35.739Z,96.10
2018-06-09T21:45:16.380Z,96.20
2018-06-09T21:47:56.296Z,96.20
2018-06-09T21:50:31.428Z,96.20
2018-06-09T21:53:06.301Z,96.40
2018-06-09T21:55:43.413Z,96.40
2018-06-09T21:58:20.526Z,96.50
2018-06-09T22:00:55.644Z,96.60
2018-06-09T22:03:30.670Z,97.10
2018-06-09T22:06:05.814Z,99.00
2018-06-09T22:08:44.059Z,99.90
2018-06-09T22:11:23.930Z,99.90
2018-06-09T22:14:01.997Z,99.90
2018-06-09T22:16:37.210Z,99.90
2018-06-09T22:19:13.144Z,99.90
2018-06-09T22:21:48.461Z,99.90
2018-06-09T22:24:23.314Z,99.90
2018-06-09T22:26:58.398Z,99.90
2018-06-09T22:29:33.362Z,99.90
2018-06-09T22:32:08.545Z,99.90
2018-06-09T22:34:43.392Z,99.90
2018-06-09T22:37:18.329Z,99.90
2018-06-09T22:39:53.311Z,99.90
2018-06-09T22:42:28.494Z,99.90
2018-06-09T22:47:38.317Z,99.90
2018-06-09T22:50:13.551Z,99.90
2018-06-09T22:52:48.479Z,99.90
2018-06-09T22:55:23.567Z,99.90
2018-06-09T22:57:58.614Z,99.90
2018-06-09T23:00:40.198Z,99.90
2018-06-09T23:03:16.202Z,99.90
2018-06-09T23:05:51.168Z,99.90
2018-06-09T23:08:26.252Z,99.90
2018-06-09T23:11:01.695Z,99.90
2018-06-09T23:13:36.882Z,99.90
2018-06-09T23:16:11.724Z,99.90
2018-06-09T23:18:46.788Z,99.90
2018-06-09T23:21:22.251Z,99.90
2018-06-09T23:23:57.312Z,99.90
2018-06-09T23:26:32.173Z,99.90
2018-06-09T23:29:07.131Z,99.90
2018-06-09T23:31:42.185Z,99.90
2018-06-09T23:34:17.633Z,99.90
2018-06-09T23:36:52.657Z,99.90
2018-06-09T23:39:27.705Z,99.90
2018-06-09T23:42:02.607Z,99.90
2018-06-09T23:44:37.553Z,99.90
2018-06-09T23:47:12.523Z,99.90
2018-06-09T23:49:47.174Z,99.90
2018-06-09T23:52:22.101Z,99.90
2018-06-09T23:54:57.175Z,99.90
2018-06-09T23:57:32.916Z,99.90
